Terminal Aerodrome Forecast
Issued by NWS Charleston, WV

Current Version | Previous Version | Text Only | Print | Product List | Glossary Off
Versions: 1 2 3 4 5 6 7 8 9 10 11 12 13 14 15 16 17 18 19 20 21 22 23 24 25

000
FTUS41 KRLX 040200 AAB
TAFEKN
TAF AMD
KEKN 040237Z 0403/0424 21010G22KT P6SM BKN025 BKN045
     FM040600 22011G17KT 4SM -RA OVC010
     FM040800 26010G15KT 3SM -RA BR OVC008
     FM041100 26005KT 1 1/2SM -RA BR OVC003=

USA.gov is the U.S. government's official web portal to all federal, state and local government web resources and services.